createdAt,value
2022-08-25T00:02:55.450Z,98586.34
2022-08-25T00:06:03.459Z,98581.13
2022-08-25T00:09:15.627Z,98578.59
2022-08-25T00:12:22.348Z,98574.97
2022-08-25T00:15:28.763Z,98573.03
2022-08-25T00:18:37.534Z,98574.97
2022-08-25T00:21:43.540Z,98564.59
2022-08-25T00:24:53.325Z,98568.25
2022-08-25T00:27:59.384Z,98566.56
2022-08-25T00:31:08.073Z,98562.78
2022-08-25T00:34:16.841Z,98563.50
2022-08-25T00:37:23.727Z,98562.41
2022-08-25T00:40:33.443Z,98556.81
2022-08-25T00:43:49.265Z,98561.59
2022-08-25T00:46:57.252Z,98556.28
2022-08-25T00:50:07.133Z,98555.13
2022-08-25T00:53:14.938Z,98558.53
2022-08-25T00:56:25.887Z,98559.06
2022-08-25T00:59:32.377Z,98550.97
2022-08-25T01:02:39.238Z,98557.69
2022-08-25T01:05:46.929Z,98557.41
2022-08-25T01:08:54.880Z,98552.94
2022-08-25T01:12:04.405Z,98558.13
2022-08-25T01:15:13.859Z,98558.38
2022-08-25T01:18:21.019Z,98556.84
2022-08-25T01:21:34.536Z,98561.59
2022-08-25T01:24:44.029Z,98553.31
2022-08-25T01:27:50.789Z,98555.44
2022-08-25T01:30:56.882Z,98545.28
2022-08-25T01:34:04.281Z,98551.03
2022-08-25T01:37:15.904Z,98541.78
2022-08-25T01:40:23.340Z,98544.69
2022-08-25T01:43:34.757Z,98544.69
2022-08-25T01:46:41.739Z,98542.63
2022-08-25T01:49:47.845Z,98537.41
2022-08-25T01:53:03.231Z,98537.16
2022-08-25T01:56:13.125Z,98527.66
2022-08-25T01:59:24.021Z,98532.97
2022-08-25T02:02:31.706Z,98532.00
2022-08-25T02:05:39.849Z,98529.06
2022-08-25T02:08:49.268Z,98527.66
2022-08-25T02:11:57.078Z,98523.59
2022-08-25T02:15:03.235Z,98525.41
2022-08-25T02:18:10.857Z,98529.88
2022-08-25T02:21:17.092Z,98528.16
2022-08-25T02:24:27.376Z,98533.19
2022-08-25T02:27:33.541Z,98525.34
2022-08-25T02:30:42.753Z,98523.97
2022-08-25T02:33:48.983Z,98524.22
2022-08-25T02:36:56.210Z,98520.88
2022-08-25T02:40:07.707Z,98520.34
2022-08-25T02:43:13.661Z,98523.69
2022-08-25T02:46:23.019Z,98520.06
2022-08-25T02:49:29.014Z,98526.25
2022-08-25T02:52:35.872Z,98522.28
2022-08-25T02:55:44.767Z,98517.94
2022-08-25T02:58:51.618Z,98514.44
2022-08-25T03:01:57.494Z,98509.44
2022-08-25T03:05:04.553Z,98512.22
2022-08-25T03:08:12.365Z,98512.38
2022-08-25T03:11:22.471Z,98509.56
2022-08-25T03:14:28.344Z,98497.00
2022-08-25T03:17:36.014Z,98499.94
2022-08-25T03:20:43.298Z,98499.06
2022-08-25T03:23:50.045Z,98495.00
2022-08-25T03:26:56.558Z,98496.41
2022-08-25T03:30:03.711Z,98495.16
2022-08-25T03:33:09.615Z,98494.03
2022-08-25T03:36:16.774Z,98497.97
2022-08-25T03:39:25.923Z,98497.44
2022-08-25T03:42:35.571Z,98497.44
2022-08-25T03:45:43.536Z,98496.59
2022-08-25T03:48:50.435Z,98497.97
2022-08-25T03:51:58.028Z,98497.25
2022-08-25T03:55:07.115Z,98501.75
2022-08-25T03:58:15.851Z,98512.81
2022-08-25T04:01:23.132Z,98506.91
2022-08-25T04:04:29.057Z,98499.94
2022-08-25T04:07:35.866Z,98510.25
2022-08-25T04:10:41.850Z,98506.03
2022-08-25T04:13:52.121Z,98509.38
2022-08-25T04:16:58.151Z,98501.41
2022-08-25T04:20:06.973Z,98498.75
2022-08-25T04:23:13.828Z,98501.56
2022-08-25T04:26:28.322Z,98497.66
2022-08-25T04:29:37.287Z,98498.81
2022-08-25T04:32:44.037Z,98500.09
2022-08-25T04:35:52.012Z,98502.75
2022-08-25T04:38:58.951Z,98513.31
2022-08-25T04:42:06.273Z,98503.66
2022-08-25T04:45:15.918Z,98510.13
2022-08-25T04:48:22.211Z,98505.94
2022-08-25T04:51:31.539Z,98497.53
2022-08-25T04:54:37.575Z,98497.25
2022-08-25T04:57:44.346Z,98500.06
2022-08-25T05:00:53.406Z,98495.56
2022-08-25T05:04:03.239Z,98496.97
2022-08-25T05:07:09.668Z,98499.06
2022-08-25T05:10:17.244Z,98499.91
2022-08-25T05:13:23.759Z,98503.69
2022-08-25T05:16:34.441Z,98513.38
2022-08-25T05:19:40.777Z,98508.19
2022-08-25T05:22:49.198Z,98498.78
2022-08-25T05:25:57.271Z,98501.97
2022-08-25T05:29:07.918Z,98498.34
2022-08-25T05:32:16.687Z,98498.88
2022-08-25T05:35:24.997Z,98510.91
2022-08-25T05:38:31.707Z,98500.50
2022-08-25T05:41:38.591Z,98495.28
2022-08-25T05:44:44.752Z,98503.25
2022-08-25T05:47:54.421Z,98499.88
2022-08-25T05:51:03.038Z,98495.63
2022-08-25T05:54:10.009Z,98496.34
2022-08-25T05:57:15.970Z,98502.25
2022-08-25T06:00:23.022Z,98492.25
2022-08-25T06:03:29.367Z,98499.06
2022-08-25T06:06:36.565Z,98503.88
2022-08-25T06:09:46.445Z,98505.72
2022-08-25T06:12:53.254Z,98502.91
2022-08-25T06:16:09.380Z,98510.44
2022-08-25T06:19:19.153Z,98499.03
2022-08-25T06:22:25.627Z,98489.81
2022-08-25T06:25:34.123Z,98481.13
2022-08-25T06:28:40.140Z,98498.81
2022-08-25T06:31:50.178Z,98490.84
2022-08-25T06:34:59.206Z,98498.41
2022-08-25T06:38:06.953Z,98492.97
2022-08-25T06:41:14.184Z,98488.41
2022-08-25T06:44:20.876Z,98496.25
2022-08-25T06:47:27.495Z,98494.16
2022-08-25T06:50:37.038Z,98495.56
2022-08-25T06:53:43.231Z,98488.78
2022-08-25T06:56:50.047Z,98489.69
2022-08-25T06:59:56.710Z,98485.41
2022-08-25T07:03:07.168Z,98490.75
2022-08-25T07:06:16.591Z,98487.28
2022-08-25T07:09:25.288Z,98487.31
2022-08-25T07:12:31.211Z,98493.53
2022-08-25T07:15:41.696Z,98489.84
2022-08-25T07:18:49.079Z,98495.22
2022-08-25T07:21:58.635Z,98492.25
2022-08-25T07:25:06.107Z,98489.22
2022-08-25T07:28:12.968Z,98487.09
2022-08-25T07:31:19.554Z,98475.94
2022-08-25T07:34:56.611Z,98481.94
2022-08-25T07:38:06.911Z,98487.31
2022-08-25T07:41:17.282Z,98495.69
2022-08-25T07:44:24.756Z,98485.97
2022-08-25T07:47:35.155Z,98488.31
2022-08-25T07:50:45.493Z,98491.19
2022-08-25T07:53:55.274Z,98492.69
2022-08-25T07:57:04.171Z,98485.66
2022-08-25T08:00:12.189Z,98493.34
2022-08-25T08:03:29.394Z,98489.69
2022-08-25T08:06:45.050Z,98482.81
2022-08-25T08:10:18.961Z,98488.97
2022-08-25T08:13:23.847Z,98485.66
2022-08-25T08:16:33.802Z,98487.81
2022-08-25T08:19:44.826Z,98472.75
2022-08-25T08:22:51.344Z,98479.63
2022-08-25T08:26:01.172Z,98476.09
2022-08-25T08:29:07.949Z,98474.91
2022-08-25T08:32:18.775Z,98476.59
2022-08-25T08:35:24.779Z,98478.09
2022-08-25T08:38:32.350Z,98476.09
2022-08-25T08:42:11.535Z,98479.44
2022-08-25T08:45:40.654Z,98480.97
2022-08-25T08:49:04.358Z,98482.78
2022-08-25T08:52:13.358Z,98474.91
2022-08-25T08:55:30.635Z,98474.25
2022-08-25T08:58:45.569Z,98475.59
2022-08-25T09:02:03.143Z,98478.94
2022-08-25T09:05:15.151Z,98477.63
2022-08-25T09:08:21.540Z,98481.47
2022-08-25T09:11:40.044Z,98478.94
2022-08-25T09:15:12.573Z,98479.03
2022-08-25T09:18:30.613Z,98486.59
2022-08-25T09:21:43.884Z,98486.72
2022-08-25T09:25:00.132Z,98472.47
2022-08-25T09:28:11.433Z,98468.44
2022-08-25T09:31:29.587Z,98467.38
2022-08-25T09:34:37.764Z,98461.81
2022-08-25T09:37:44.776Z,98474.41
2022-08-25T09:40:53.808Z,98461.09
2022-08-25T09:44:03.233Z,98459.38
2022-08-25T09:47:24.543Z,98464.53
2022-08-25T09:50:36.159Z,98459.97
2022-08-25T09:53:55.101Z,98462.50
2022-08-25T09:57:08.557Z,98458.13
2022-08-25T10:00:23.413Z,98457.13
2022-08-25T10:03:36.348Z,98447.25
2022-08-25T10:06:48.240Z,98440.44
2022-08-25T10:09:57.845Z,98443.56
2022-08-25T10:13:07.075Z,98435.84
2022-08-25T10:16:27.005Z,98440.53
2022-08-25T10:19:38.742Z,98436.84
2022-08-25T10:22:50.297Z,98430.75
2022-08-25T10:26:01.832Z,98429.50
2022-08-25T10:29:27.063Z,98428.31
2022-08-25T10:32:43.370Z,98431.28
2022-08-25T10:36:03.088Z,98419.44
2022-08-25T10:39:33.869Z,98420.75
2022-08-25T10:42:48.500Z,98414.63
2022-08-25T10:46:10.299Z,98419.50
2022-08-25T10:49:23.094Z,98413.38
2022-08-25T10:52:40.119Z,98412.66
2022-08-25T10:55:56.277Z,98407.28
2022-08-25T10:59:42.767Z,98406.63
2022-08-25T11:03:12.044Z,98403.19
2022-08-25T11:06:23.560Z,98396.41
2022-08-25T11:09:40.186Z,98392.81
2022-08-25T11:12:49.061Z,98390.41
2022-08-25T11:16:17.183Z,98392.63
2022-08-25T11:19:27.465Z,98384.81
2022-08-25T11:22:40.881Z,98381.84
2022-08-25T11:25:54.134Z,98380.47
2022-08-25T11:29:11.360Z,98377.00
2022-08-25T11:32:22.792Z,98374.72
2022-08-25T11:35:33.064Z,98366.03
2022-08-25T11:38:51.105Z,98357.19
2022-08-25T11:42:17.771Z,98351.97
2022-08-25T11:45:44.120Z,98349.91
2022-08-25T11:49:04.744Z,98347.72
2022-08-25T11:52:46.147Z,98353.06
2022-08-25T11:55:56.227Z,98346.88
2022-08-25T11:59:06.969Z,98345.22
2022-08-25T12:02:34.236Z,98348.38
2022-08-25T12:06:21.635Z,98337.78
2022-08-25T12:09:28.621Z,98340.84
2022-08-25T12:12:41.598Z,98331.94
2022-08-25T12:16:03.103Z,98335.69
2022-08-25T12:19:34.041Z,98322.91
2022-08-25T12:23:03.071Z,98324.19
2022-08-25T12:26:17.785Z,98328.78
2022-08-25T12:29:33.565Z,98330.06
2022-08-25T12:32:58.729Z,98330.28
2022-08-25T12:36:11.126Z,98328.88
2022-08-25T12:39:24.215Z,98322.03
2022-08-25T12:42:38.340Z,98326.81
2022-08-25T12:45:49.364Z,98324.38
2022-08-25T12:49:04.151Z,98338.53
2022-08-25T12:52:15.243Z,98328.13
2022-08-25T12:55:25.173Z,98315.84
2022-08-25T12:58:58.981Z,98315.03
2022-08-25T13:02:35.307Z,98312.78
2022-08-25T13:06:13.147Z,98312.81
2022-08-25T13:10:01.038Z,98309.09
2022-08-25T13:13:16.500Z,98314.47
2022-08-25T13:16:29.669Z,98323.59
2022-08-25T13:19:36.065Z,98314.03
2022-08-25T13:22:48.524Z,98317.34
2022-08-25T13:25:58.367Z,98309.47
2022-08-25T13:29:17.967Z,98306.63
2022-08-25T13:32:32.370Z,98296.94
2022-08-25T13:35:41.230Z,98291.34
2022-08-25T13:38:57.624Z,98286.41
2022-08-25T13:42:07.474Z,98295.16
2022-08-25T13:45:18.358Z,98303.88
2022-08-25T13:48:36.569Z,98299.72
2022-08-25T13:51:54.767Z,98295.16
2022-08-25T13:55:06.143Z,98296.84
2022-08-25T13:58:24.332Z,98288.53
2022-08-25T14:01:48.721Z,98290.22
2022-08-25T14:04:55.681Z,98285.69
2022-08-25T14:08:16.117Z,98287.75
2022-08-25T14:11:37.621Z,98274.47
2022-08-25T14:14:46.021Z,98274.06
2022-08-25T14:18:06.554Z,98271.38
2022-08-25T14:21:14.727Z,98270.97
2022-08-25T14:24:22.881Z,98267.41
2022-08-25T14:27:38.746Z,98267.81
2022-08-25T14:30:52.485Z,98267.81
2022-08-25T14:34:03.062Z,98258.47
2022-08-25T14:37:15.594Z,98264.50
2022-08-25T14:40:23.130Z,98261.16
2022-08-25T14:43:32.386Z,98262.22
2022-08-25T14:46:46.217Z,98255.16
2022-08-25T14:49:52.840Z,98253.69
2022-08-25T14:53:00.093Z,98254.97
2022-08-25T14:56:10.298Z,98250.97
2022-08-25T14:59:20.145Z,98259.47
2022-08-25T15:02:29.548Z,98242.44
2022-08-25T15:05:37.640Z,98249.06
2022-08-25T15:08:59.554Z,98249.31
2022-08-25T15:12:07.191Z,98251.59
2022-08-25T15:15:17.664Z,98245.78
2022-08-25T15:18:26.065Z,98249.13
2022-08-25T15:21:32.456Z,98249.56
2022-08-25T15:24:39.294Z,98242.47
2022-08-25T15:27:45.712Z,98252.66
2022-08-25T15:30:55.978Z,98246.63
2022-08-25T15:34:03.042Z,98246.22
2022-08-25T15:37:12.104Z,98246.66
2022-08-25T15:40:19.188Z,98240.81
2022-08-25T15:43:26.370Z,98239.59
2022-08-25T15:46:35.732Z,98237.91
2022-08-25T15:49:43.377Z,98237.91
2022-08-25T15:52:49.774Z,98233.44
2022-08-25T15:55:57.695Z,98235.09
2022-08-25T15:59:10.534Z,98229.25
2022-08-25T16:02:20.186Z,98223.69
2022-08-25T16:05:26.359Z,98220.22
2022-08-25T16:08:34.077Z,98222.13
2022-08-25T16:11:43.813Z,98222.66
2022-08-25T16:14:51.156Z,98233.88
2022-08-25T16:18:04.769Z,98233.13
2022-08-25T16:21:13.199Z,98230.84
2022-08-25T16:24:20.802Z,98229.91
2022-08-25T16:27:28.035Z,98235.25
2022-08-25T16:30:50.256Z,98230.56
2022-08-25T16:34:03.150Z,98241.88
2022-08-25T16:37:09.338Z,98244.91
2022-08-25T16:40:19.151Z,98238.25
2022-08-25T16:43:26.645Z,98232.97
2022-08-25T16:46:34.031Z,98239.50
2022-08-25T16:49:43.463Z,98224.56
2022-08-25T16:53:08.071Z,98229.19
2022-08-25T16:56:14.371Z,98226.00
2022-08-25T16:59:21.387Z,98226.38
2022-08-25T17:02:29.999Z,98227.44
2022-08-25T17:05:45.734Z,98227.09
2022-08-25T17:08:52.738Z,98228.34
2022-08-25T17:11:59.785Z,98230.00
2022-08-25T17:15:08.115Z,98229.16
2022-08-25T17:18:14.922Z,98232.69
2022-08-25T17:21:27.053Z,98230.75
2022-08-25T17:24:33.982Z,98237.53
2022-08-25T17:27:41.308Z,98231.88
2022-08-25T17:30:49.659Z,98231.78
2022-08-25T17:33:56.221Z,98231.66
2022-08-25T17:37:07.018Z,98226.97
2022-08-25T17:40:14.598Z,98225.63
2022-08-25T17:43:21.378Z,98242.03
2022-08-25T17:46:27.562Z,98237.78
2022-08-25T17:49:34.613Z,98240.94
2022-08-25T17:52:43.908Z,98236.44
2022-08-25T17:55:51.452Z,98238.13
2022-08-25T17:58:59.109Z,98237.81
2022-08-25T18:02:06.733Z,98235.00
2022-08-25T18:05:14.301Z,98237.16
2022-08-25T18:08:32.085Z,98241.34
2022-08-25T18:11:41.366Z,98249.03
2022-08-25T18:14:49.391Z,98247.66
2022-08-25T18:17:57.523Z,98242.75
2022-08-25T18:21:06.887Z,98239.50
2022-08-25T18:24:16.825Z,98244.97
2022-08-25T18:27:23.778Z,98243.41
2022-08-25T18:30:32.006Z,98253.59
2022-08-25T18:33:41.838Z,98251.97
2022-08-25T18:36:47.884Z,98251.22
2022-08-25T18:40:13.846Z,98248.41
2022-08-25T18:43:19.917Z,98257.88
2022-08-25T18:46:27.448Z,98259.28
2022-08-25T18:49:33.486Z,98261.03
2022-08-25T18:52:40.739Z,98256.75
2022-08-25T18:55:49.569Z,98259.84
2022-08-25T18:58:56.482Z,98254.88
2022-08-25T19:02:03.198Z,98257.44
2022-08-25T19:05:10.807Z,98253.16
2022-08-25T19:08:21.940Z,98247.00
2022-08-25T19:11:32.115Z,98250.75
2022-08-25T19:14:39.278Z,98248.09
2022-08-25T19:17:46.831Z,98254.16
2022-08-25T19:20:53.116Z,98258.19
2022-08-25T19:23:59.875Z,98255.84
2022-08-25T19:27:12.958Z,98260.25
2022-08-25T19:30:22.007Z,98261.13
2022-08-25T19:33:42.058Z,98260.63
2022-08-25T19:36:51.620Z,98261.31
2022-08-25T19:39:58.322Z,98263.31
2022-08-25T19:43:10.299Z,98263.31
2022-08-25T19:46:19.880Z,98258.31
2022-08-25T19:49:31.441Z,98255.97
2022-08-25T19:52:40.094Z,98251.47
2022-08-25T19:55:50.103Z,98254.34
2022-08-25T19:58:59.193Z,98253.00
2022-08-25T20:02:08.233Z,98248.03
2022-08-25T20:05:23.676Z,98250.38
2022-08-25T20:08:31.227Z,98247.38
2022-08-25T20:11:38.125Z,98249.38
2022-08-25T20:14:48.808Z,98237.00
2022-08-25T20:17:56.642Z,98246.34
2022-08-25T20:21:03.663Z,98241.31
2022-08-25T20:24:26.620Z,98243.69
2022-08-25T20:27:41.195Z,98244.38
2022-08-25T20:30:50.164Z,98240.34
2022-08-25T20:34:02.835Z,98245.38
2022-08-25T20:37:09.197Z,98242.38
2022-08-25T20:40:20.788Z,98241.06
2022-08-25T20:43:31.940Z,98234.53
2022-08-25T20:46:41.744Z,98233.69
2022-08-25T20:49:50.347Z,98239.06
2022-08-25T20:52:59.372Z,98238.41
2022-08-25T20:56:11.263Z,98232.19
2022-08-25T20:59:18.430Z,98232.06
2022-08-25T21:02:29.612Z,98221.97
2022-08-25T21:05:37.109Z,98227.00
2022-08-25T21:08:45.154Z,98224.97
2022-08-25T21:11:55.480Z,98217.66
2022-08-25T21:15:03.155Z,98214.63
2022-08-25T21:18:12.693Z,98211.63
2022-08-25T21:21:19.063Z,98225.31
2022-08-25T21:24:26.102Z,98221.97
2022-08-25T21:27:32.011Z,98222.63
2022-08-25T21:30:44.788Z,98223.28
2022-08-25T21:33:57.103Z,98222.63
2022-08-25T21:37:04.165Z,98223.13
2022-08-25T21:40:11.153Z,98220.91
2022-08-25T21:43:18.716Z,98214.22
2022-08-25T21:46:26.495Z,98210.38
2022-08-25T21:49:37.235Z,98209.84
2022-08-25T21:52:43.815Z,98209.16
2022-08-25T21:55:50.641Z,98211.16
2022-08-25T21:58:56.744Z,98212.63
2022-08-25T22:02:07.745Z,98214.47
2022-08-25T22:05:16.967Z,98214.63
2022-08-25T22:08:23.956Z,98210.75
2022-08-25T22:11:37.128Z,98212.41
2022-08-25T22:14:43.911Z,98207.88
2022-08-25T22:17:50.571Z,98207.84
2022-08-25T22:21:00.762Z,98203.66
2022-08-25T22:24:13.989Z,98199.66
2022-08-25T22:27:23.286Z,98205.28
2022-08-25T22:30:30.031Z,98202.28
2022-08-25T22:33:37.532Z,98198.91
2022-08-25T22:36:49.935Z,98202.88
2022-08-25T22:39:57.423Z,98206.03
2022-08-25T22:43:03.674Z,98209.13
2022-08-25T22:46:13.559Z,98201.47
2022-08-25T22:49:23.155Z,98198.81
2022-08-25T22:52:33.760Z,98195.97
2022-08-25T22:55:46.438Z,98190.09
2022-08-25T22:58:53.333Z,98196.75
2022-08-25T23:01:59.392Z,98187.38
2022-08-25T23:05:07.994Z,98190.38
2022-08-25T23:11:43.675Z,98178.28
2022-08-25T23:14:50.520Z,98175.25
2022-08-25T23:17:57.336Z,98177.56
2022-08-25T23:21:24.284Z,98172.53
2022-08-25T23:24:34.643Z,98173.69
2022-08-25T23:27:40.578Z,98174.03
2022-08-25T23:30:47.839Z,98177.13
2022-08-25T23:34:03.695Z,98173.81
2022-08-25T23:37:10.884Z,98170.75
2022-08-25T23:40:19.780Z,98176.41
2022-08-25T23:43:27.186Z,98173.34
2022-08-25T23:46:35.218Z,98175.31
2022-08-25T23:49:42.326Z,98177.63
2022-08-25T23:52:48.903Z,98167.44
2022-08-25T23:56:00.744Z,98165.91
2022-08-25T23:59:08.873Z,98166.22
